sensor_id;sensor_type;location;lat;lon;timestamp;temperature;humidity
23629;DHT22;11991;57.150;-2.134;2022-10-19T00:01:18;9.20;99.90
23629;DHT22;11991;57.150;-2.134;2022-10-19T00:03:48;9.20;99.90
23629;DHT22;11991;57.150;-2.134;2022-10-19T00:06:28;9.10;99.90
23629;DHT22;11991;57.150;-2.134;2022-10-19T00:08:58;9.10;99.90
23629;DHT22;11991;57.150;-2.134;2022-10-19T00:11:28;9.10;99.90
23629;DHT22;11991;57.150;-2.134;2022-10-19T00:13:56;9.10;99.90
23629;DHT22;11991;57.150;-2.134;2022-10-19T00:16:28;9.00;99.90
23629;DHT22;11991;57.150;-2.134;2022-10-19T00:18:58;9.00;99.90
23629;DHT22;11991;57.150;-2.134;2022-10-19T00:21:26;9.00;99.90
23629;DHT22;11991;57.150;-2.134;2022-10-19T00:23:54;8.90;99.90
23629;DHT22;11991;57.150;-2.134;2022-10-19T00:26:21;8.80;99.90
23629;DHT22;11991;57.150;-2.134;2022-10-19T00:28:50;8.80;99.90
23629;DHT22;11991;57.150;-2.134;2022-10-19T00:31:19;8.80;99.90
23629;DHT22;11991;57.150;-2.134;2022-10-19T00:33:47;8.80;99.90
23629;DHT22;11991;57.150;-2.134;2022-10-19T00:36:41;8.70;99.90
23629;DHT22;11991;57.150;-2.134;2022-10-19T00:39:12;8.70;99.90
23629;DHT22;11991;57.150;-2.134;2022-10-19T00:41:41;8.70;99.90
23629;DHT22;11991;57.150;-2.134;2022-10-19T00:53:28;8.60;99.90
23629;DHT22;11991;57.150;-2.134;2022-10-19T00:56:04;8.60;99.90
23629;DHT22;11991;57.150;-2.134;2022-10-19T00:58:44;8.70;99.90
23629;DHT22;11991;57.150;-2.134;2022-10-19T01:01:15;8.70;99.90
23629;DHT22;11991;57.150;-2.134;2022-10-19T01:03:44;8.70;99.90
23629;DHT22;11991;57.150;-2.134;2022-10-19T01:06:13;8.80;99.90
23629;DHT22;11991;57.150;-2.134;2022-10-19T01:08:43;8.80;99.90
23629;DHT22;11991;57.150;-2.134;2022-10-19T01:11:20;8.80;99.90
23629;DHT22;11991;57.150;-2.134;2022-10-19T01:16:52;8.80;99.90
23629;DHT22;11991;57.150;-2.134;2022-10-19T01:34:16;9.00;99.90
23629;DHT22;11991;57.150;-2.134;2022-10-19T01:37:11;9.00;99.90
23629;DHT22;11991;57.150;-2.134;2022-10-19T01:39:57;9.00;99.90
23629;DHT22;11991;57.150;-2.134;2022-10-19T01:45:13;8.90;99.90
23629;DHT22;11991;57.150;-2.134;2022-10-19T01:47:56;9.00;99.90
23629;DHT22;11991;57.150;-2.134;2022-10-19T01:50:41;9.00;99.90
23629;DHT22;11991;57.150;-2.134;2022-10-19T01:53:10;9.00;99.90
23629;DHT22;11991;57.150;-2.134;2022-10-19T01:55:41;9.00;99.90
23629;DHT22;11991;57.150;-2.134;2022-10-19T01:58:15;9.10;99.90
23629;DHT22;11991;57.150;-2.134;2022-10-19T02:00:45;9.10;99.90
23629;DHT22;11991;57.150;-2.134;2022-10-19T02:03:16;9.20;99.90
23629;DHT22;11991;57.150;-2.134;2022-10-19T02:05:46;9.20;99.90
23629;DHT22;11991;57.150;-2.134;2022-10-19T02:08:21;9.30;99.90
23629;DHT22;11991;57.150;-2.134;2022-10-19T02:10:50;9.30;99.90
23629;DHT22;11991;57.150;-2.134;2022-10-19T02:13:20;9.30;99.90
23629;DHT22;11991;57.150;-2.134;2022-10-19T02:15:52;9.30;99.90
23629;DHT22;11991;57.150;-2.134;2022-10-19T02:18:30;9.30;99.90
23629;DHT22;11991;57.150;-2.134;2022-10-19T02:21:05;9.40;99.90
23629;DHT22;11991;57.150;-2.134;2022-10-19T02:23:33;9.40;99.90
23629;DHT22;11991;57.150;-2.134;2022-10-19T02:26:05;9.50;99.90
23629;DHT22;11991;57.150;-2.134;2022-10-19T02:28:35;9.50;99.90
23629;DHT22;11991;57.150;-2.134;2022-10-19T02:31:04;9.50;99.90
23629;DHT22;11991;57.150;-2.134;2022-10-19T02:33:33;9.50;99.90
23629;DHT22;11991;57.150;-2.134;2022-10-19T02:36:02;9.50;99.90
23629;DHT22;11991;57.150;-2.134;2022-10-19T02:38:30;9.50;99.90
23629;DHT22;11991;57.150;-2.134;2022-10-19T02:41:20;9.50;99.90
23629;DHT22;11991;57.150;-2.134;2022-10-19T02:43:55;9.50;99.90
23629;DHT22;11991;57.150;-2.134;2022-10-19T02:46:43;9.50;99.90
23629;DHT22;11991;57.150;-2.134;2022-10-19T02:49:14;9.50;99.90
23629;DHT22;11991;57.150;-2.134;2022-10-19T02:52:00;9.50;99.90
23629;DHT22;11991;57.150;-2.134;2022-10-19T02:54:45;9.50;99.90
23629;DHT22;11991;57.150;-2.134;2022-10-19T02:57:22;9.50;99.90
23629;DHT22;11991;57.150;-2.134;2022-10-19T02:59:51;9.50;99.90
23629;DHT22;11991;57.150;-2.134;2022-10-19T03:02:19;9.60;99.90
23629;DHT22;11991;57.150;-2.134;2022-10-19T03:04:47;9.60;99.90
23629;DHT22;11991;57.150;-2.134;2022-10-19T03:07:18;9.50;99.90
23629;DHT22;11991;57.150;-2.134;2022-10-19T03:09:49;9.50;99.90
23629;DHT22;11991;57.150;-2.134;2022-10-19T03:12:18;9.60;99.90
23629;DHT22;11991;57.150;-2.134;2022-10-19T03:14:46;9.60;99.90
23629;DHT22;11991;57.150;-2.134;2022-10-19T03:17:14;9.60;99.90
23629;DHT22;11991;57.150;-2.134;2022-10-19T03:19:43;9.60;99.90
23629;DHT22;11991;57.150;-2.134;2022-10-19T03:22:13;9.60;99.90
23629;DHT22;11991;57.150;-2.134;2022-10-19T03:24:40;9.60;99.90
23629;DHT22;11991;57.150;-2.134;2022-10-19T03:27:08;9.60;99.90
23629;DHT22;11991;57.150;-2.134;2022-10-19T03:29:37;9.60;99.90
23629;DHT22;11991;57.150;-2.134;2022-10-19T03:32:04;9.60;99.90
23629;DHT22;11991;57.150;-2.134;2022-10-19T03:34:32;9.60;99.90
23629;DHT22;11991;57.150;-2.134;2022-10-19T03:37:01;9.60;99.90
23629;DHT22;11991;57.150;-2.134;2022-10-19T03:39:29;9.60;99.90
23629;DHT22;11991;57.150;-2.134;2022-10-19T03:41:56;9.60;99.90
23629;DHT22;11991;57.150;-2.134;2022-10-19T03:44:24;9.60;99.90
23629;DHT22;11991;57.150;-2.134;2022-10-19T03:46:52;9.60;99.90
23629;DHT22;11991;57.150;-2.134;2022-10-19T03:49:20;9.60;99.90
23629;DHT22;11991;57.150;-2.134;2022-10-19T03:51:48;9.60;99.90
23629;DHT22;11991;57.150;-2.134;2022-10-19T03:54:17;9.60;99.90
23629;DHT22;11991;57.150;-2.134;2022-10-19T03:56:49;9.60;99.90
23629;DHT22;11991;57.150;-2.134;2022-10-19T03:59:16;9.60;99.90
23629;DHT22;11991;57.150;-2.134;2022-10-19T04:01:44;9.60;99.90
23629;DHT22;11991;57.150;-2.134;2022-10-19T04:04:16;9.60;99.90
23629;DHT22;11991;57.150;-2.134;2022-10-19T04:06:46;9.60;99.90
23629;DHT22;11991;57.150;-2.134;2022-10-19T04:09:22;9.70;99.90
23629;DHT22;11991;57.150;-2.134;2022-10-19T04:11:50;9.60;99.90
23629;DHT22;11991;57.150;-2.134;2022-10-19T04:14:23;9.80;99.90
23629;DHT22;11991;57.150;-2.134;2022-10-19T04:17:00;9.70;99.90
23629;DHT22;11991;57.150;-2.134;2022-10-19T04:19:31;9.70;99.90
23629;DHT22;11991;57.150;-2.134;2022-10-19T04:21:59;9.70;99.90
23629;DHT22;11991;57.150;-2.134;2022-10-19T04:24:28;9.70;99.90
23629;DHT22;11991;57.150;-2.134;2022-10-19T04:26:55;9.70;99.90
23629;DHT22;11991;57.150;-2.134;2022-10-19T04:29:24;9.80;99.90
23629;DHT22;11991;57.150;-2.134;2022-10-19T04:31:57;9.80;99.90
23629;DHT22;11991;57.150;-2.134;2022-10-19T04:34:24;9.80;99.90
23629;DHT22;11991;57.150;-2.134;2022-10-19T04:36:52;9.70;99.90
23629;DHT22;11991;57.150;-2.134;2022-10-19T04:39:20;9.70;99.90
23629;DHT22;11991;57.150;-2.134;2022-10-19T04:41:47;9.70;99.90
23629;DHT22;11991;57.150;-2.134;2022-10-19T04:44:16;9.70;99.90
23629;DHT22;11991;57.150;-2.134;2022-10-19T04:46:43;9.70;99.90
23629;DHT22;11991;57.150;-2.134;2022-10-19T04:49:11;9.60;99.90
23629;DHT22;11991;57.150;-2.134;2022-10-19T04:51:45;9.70;99.90
23629;DHT22;11991;57.150;-2.134;2022-10-19T04:54:15;9.60;99.90
23629;DHT22;11991;57.150;-2.134;2022-10-19T04:56:43;9.60;99.90
23629;DHT22;11991;57.150;-2.134;2022-10-19T04:59:11;9.60;99.90
23629;DHT22;11991;57.150;-2.134;2022-10-19T05:01:39;9.60;99.90
23629;DHT22;11991;57.150;-2.134;2022-10-19T05:04:13;9.60;99.90
23629;DHT22;11991;57.150;-2.134;2022-10-19T05:06:40;9.60;99.90
23629;DHT22;11991;57.150;-2.134;2022-10-19T05:09:09;9.70;99.90
23629;DHT22;11991;57.150;-2.134;2022-10-19T05:11:36;9.70;99.90
23629;DHT22;11991;57.150;-2.134;2022-10-19T05:14:05;9.70;99.90
23629;DHT22;11991;57.150;-2.134;2022-10-19T05:16:33;9.70;99.90
23629;DHT22;11991;57.150;-2.134;2022-10-19T05:19:04;9.70;99.90
23629;DHT22;11991;57.150;-2.134;2022-10-19T05:21:33;9.70;99.90
23629;DHT22;11991;57.150;-2.134;2022-10-19T05:24:04;9.70;99.90
23629;DHT22;11991;57.150;-2.134;2022-10-19T05:26:35;9.60;99.90
23629;DHT22;11991;57.150;-2.134;2022-10-19T05:29:11;9.60;99.90
23629;DHT22;11991;57.150;-2.134;2022-10-19T05:31:39;9.60;99.90
23629;DHT22;11991;57.150;-2.134;2022-10-19T05:34:08;9.70;99.90
23629;DHT22;11991;57.150;-2.134;2022-10-19T05:36:38;9.60;99.90
23629;DHT22;11991;57.150;-2.134;2022-10-19T05:39:12;9.60;99.90
23629;DHT22;11991;57.150;-2.134;2022-10-19T05:41:46;9.60;99.90
23629;DHT22;11991;57.150;-2.134;2022-10-19T05:44:18;9.70;99.90
23629;DHT22;11991;57.150;-2.134;2022-10-19T05:46:47;9.70;99.90
23629;DHT22;11991;57.150;-2.134;2022-10-19T05:49:18;9.70;99.90
23629;DHT22;11991;57.150;-2.134;2022-10-19T05:51:49;9.70;99.90
23629;DHT22;11991;57.150;-2.134;2022-10-19T05:54:18;9.70;99.90
23629;DHT22;11991;57.150;-2.134;2022-10-19T05:56:51;9.70;99.90
23629;DHT22;11991;57.150;-2.134;2022-10-19T05:59:22;9.80;99.90
23629;DHT22;11991;57.150;-2.134;2022-10-19T06:01:53;9.80;99.90
23629;DHT22;11991;57.150;-2.134;2022-10-19T06:04:47;9.80;99.90
23629;DHT22;11991;57.150;-2.134;2022-10-19T06:07:18;9.80;99.90
23629;DHT22;11991;57.150;-2.134;2022-10-19T06:09:45;9.80;99.90
23629;DHT22;11991;57.150;-2.134;2022-10-19T06:12:14;9.80;99.90
23629;DHT22;11991;57.150;-2.134;2022-10-19T06:14:42;9.80;99.90
23629;DHT22;11991;57.150;-2.134;2022-10-19T06:17:10;9.80;99.90
23629;DHT22;11991;57.150;-2.134;2022-10-19T06:19:37;9.80;99.90
23629;DHT22;11991;57.150;-2.134;2022-10-19T06:22:05;9.80;99.90
23629;DHT22;11991;57.150;-2.134;2022-10-19T06:24:32;9.80;99.90
23629;DHT22;11991;57.150;-2.134;2022-10-19T06:26:59;9.80;99.90
23629;DHT22;11991;57.150;-2.134;2022-10-19T06:29:28;9.90;99.90
23629;DHT22;11991;57.150;-2.134;2022-10-19T06:31:56;9.80;99.90
23629;DHT22;11991;57.150;-2.134;2022-10-19T06:34:27;9.80;99.90
23629;DHT22;11991;57.150;-2.134;2022-10-19T06:36:56;9.80;99.90
23629;DHT22;11991;57.150;-2.134;2022-10-19T06:39:24;9.90;99.90
23629;DHT22;11991;57.150;-2.134;2022-10-19T06:41:53;9.90;99.90
23629;DHT22;11991;57.150;-2.134;2022-10-19T06:44:23;9.90;99.90
23629;DHT22;11991;57.150;-2.134;2022-10-19T06:46:52;9.90;99.90
23629;DHT22;11991;57.150;-2.134;2022-10-19T06:49:21;9.90;99.90
23629;DHT22;11991;57.150;-2.134;2022-10-19T06:51:49;9.90;99.90
23629;DHT22;11991;57.150;-2.134;2022-10-19T06:54:18;9.90;99.90
23629;DHT22;11991;57.150;-2.134;2022-10-19T06:56:46;9.90;99.90
23629;DHT22;11991;57.150;-2.134;2022-10-19T06:59:13;9.90;99.90
23629;DHT22;11991;57.150;-2.134;2022-10-19T07:01:42;9.90;99.90
23629;DHT22;11991;57.150;-2.134;2022-10-19T07:04:10;9.90;99.90
23629;DHT22;11991;57.150;-2.134;2022-10-19T07:06:38;9.90;99.90
23629;DHT22;11991;57.150;-2.134;2022-10-19T07:09:05;9.90;99.90
23629;DHT22;11991;57.150;-2.134;2022-10-19T07:11:33;9.90;99.90
23629;DHT22;11991;57.150;-2.134;2022-10-19T07:14:02;9.90;99.90
23629;DHT22;11991;57.150;-2.134;2022-10-19T07:16:29;9.90;99.90
23629;DHT22;11991;57.150;-2.134;2022-10-19T07:18:59;9.90;99.90
23629;DHT22;11991;57.150;-2.134;2022-10-19T07:21:27;9.90;99.90
23629;DHT22;11991;57.150;-2.134;2022-10-19T07:23:55;9.90;99.90
23629;DHT22;11991;57.150;-2.134;2022-10-19T07:26:25;10.00;99.90
23629;DHT22;11991;57.150;-2.134;2022-10-19T07:28:55;10.00;99.90
23629;DHT22;11991;57.150;-2.134;2022-10-19T07:31:26;10.00;99.90
23629;DHT22;11991;57.150;-2.134;2022-10-19T07:34:00;10.00;99.90
23629;DHT22;11991;57.150;-2.134;2022-10-19T07:36:38;10.00;99.90
23629;DHT22;11991;57.150;-2.134;2022-10-19T07:39:38;10.00;99.90
23629;DHT22;11991;57.150;-2.134;2022-10-19T07:42:10;10.00;99.90
23629;DHT22;11991;57.150;-2.134;2022-10-19T07:44:42;10.00;99.90
23629;DHT22;11991;57.150;-2.134;2022-10-19T07:47:11;10.00;99.90
23629;DHT22;11991;57.150;-2.134;2022-10-19T07:49:39;10.10;99.90
23629;DHT22;11991;57.150;-2.134;2022-10-19T07:52:20;10.10;99.90
23629;DHT22;11991;57.150;-2.134;2022-10-19T07:54:52;10.10;99.90
23629;DHT22;11991;57.150;-2.134;2022-10-19T07:57:20;10.10;99.90
23629;DHT22;11991;57.150;-2.134;2022-10-19T07:59:49;10.10;99.90
23629;DHT22;11991;57.150;-2.134;2022-10-19T08:02:18;10.10;99.90
23629;DHT22;11991;57.150;-2.134;2022-10-19T08:04:57;10.00;99.90
23629;DHT22;11991;57.150;-2.134;2022-10-19T08:07:32;10.00;99.90
23629;DHT22;11991;57.150;-2.134;2022-10-19T08:10:00;10.00;99.90
23629;DHT22;11991;57.150;-2.134;2022-10-19T08:12:28;10.00;99.90
23629;DHT22;11991;57.150;-2.134;2022-10-19T08:14:55;10.00;99.90
23629;DHT22;11991;57.150;-2.134;2022-10-19T08:17:24;10.00;99.90
23629;DHT22;11991;57.150;-2.134;2022-10-19T08:19:52;10.10;99.90
23629;DHT22;11991;57.150;-2.134;2022-10-19T08:22:21;10.10;99.90
23629;DHT22;11991;57.150;-2.134;2022-10-19T08:24:51;10.10;99.90
23629;DHT22;11991;57.150;-2.134;2022-10-19T08:27:19;10.10;99.90
23629;DHT22;11991;57.150;-2.134;2022-10-19T08:29:51;10.10;99.90
23629;DHT22;11991;57.150;-2.134;2022-10-19T08:32:19;10.10;99.90
23629;DHT22;11991;57.150;-2.134;2022-10-19T08:34:47;10.20;99.90
23629;DHT22;11991;57.150;-2.134;2022-10-19T08:37:14;10.20;99.90
23629;DHT22;11991;57.150;-2.134;2022-10-19T08:39:58;10.20;99.90
23629;DHT22;11991;57.150;-2.134;2022-10-19T08:45:37;10.20;99.90
23629;DHT22;11991;57.150;-2.134;2022-10-19T08:48:24;10.20;99.90
23629;DHT22;11991;57.150;-2.134;2022-10-19T08:50:55;10.20;99.90
23629;DHT22;11991;57.150;-2.134;2022-10-19T08:56:26;10.20;99.90
23629;DHT22;11991;57.150;-2.134;2022-10-19T08:59:38;10.20;99.90
23629;DHT22;11991;57.150;-2.134;2022-10-19T09:05:44;10.30;99.90
23629;DHT22;11991;57.150;-2.134;2022-10-19T09:08:16;10.30;99.90
23629;DHT22;11991;57.150;-2.134;2022-10-19T09:10:49;10.40;99.90
23629;DHT22;11991;57.150;-2.134;2022-10-19T09:16:17;10.40;99.90
23629;DHT22;11991;57.150;-2.134;2022-10-19T09:18:46;10.50;99.90
23629;DHT22;11991;57.150;-2.134;2022-10-19T09:21:28;10.50;99.90
23629;DHT22;11991;57.150;-2.134;2022-10-19T09:27:23;10.50;99.90
23629;DHT22;11991;57.150;-2.134;2022-10-19T09:30:01;10.50;99.90
23629;DHT22;11991;57.150;-2.134;2022-10-19T09:32:35;10.60;99.90
23629;DHT22;11991;57.150;-2.134;2022-10-19T09:35:38;10.60;99.90
23629;DHT22;11991;57.150;-2.134;2022-10-19T09:38:09;10.60;99.90
23629;DHT22;11991;57.150;-2.134;2022-10-19T09:40:39;10.60;99.90
23629;DHT22;11991;57.150;-2.134;2022-10-19T09:43:10;10.60;99.90
23629;DHT22;11991;57.150;-2.134;2022-10-19T09:48:51;10.60;99.90
23629;DHT22;11991;57.150;-2.134;2022-10-19T09:51:21;10.60;99.90
23629;DHT22;11991;57.150;-2.134;2022-10-19T09:53:52;10.60;99.90
23629;DHT22;11991;57.150;-2.134;2022-10-19T09:56:24;10.70;99.90
23629;DHT22;11991;57.150;-2.134;2022-10-19T09:58:57;10.70;99.90
23629;DHT22;11991;57.150;-2.134;2022-10-19T10:01:38;10.70;99.90
23629;DHT22;11991;57.150;-2.134;2022-10-19T10:04:17;10.70;99.90
23629;DHT22;11991;57.150;-2.134;2022-10-19T10:06:47;10.70;99.90
23629;DHT22;11991;57.150;-2.134;2022-10-19T10:09:25;10.70;99.90
23629;DHT22;11991;57.150;-2.134;2022-10-19T10:11:56;10.70;99.90
23629;DHT22;11991;57.150;-2.134;2022-10-19T10:14:31;10.70;99.90
23629;DHT22;11991;57.150;-2.134;2022-10-19T10:17:10;10.70;99.90
23629;DHT22;11991;57.150;-2.134;2022-10-19T10:22:30;10.70;99.90
23629;DHT22;11991;57.150;-2.134;2022-10-19T10:25:17;10.70;99.90
23629;DHT22;11991;57.150;-2.134;2022-10-19T10:27:58;10.70;99.90
23629;DHT22;11991;57.150;-2.134;2022-10-19T10:30:34;10.70;99.90
23629;DHT22;11991;57.150;-2.134;2022-10-19T10:33:03;10.70;99.90
23629;DHT22;11991;57.150;-2.134;2022-10-19T10:35:53;10.70;99.90
23629;DHT22;11991;57.150;-2.134;2022-10-19T10:38:39;10.60;99.90
23629;DHT22;11991;57.150;-2.134;2022-10-19T10:41:35;10.70;99.90
23629;DHT22;11991;57.150;-2.134;2022-10-19T10:44:25;10.70;99.90
23629;DHT22;11991;57.150;-2.134;2022-10-19T10:47:03;10.70;99.90
23629;DHT22;11991;57.150;-2.134;2022-10-19T10:49:36;10.70;99.90
23629;DHT22;11991;57.150;-2.134;2022-10-19T10:52:16;10.70;99.90
23629;DHT22;11991;57.150;-2.134;2022-10-19T10:57:49;10.80;99.90
23629;DHT22;11991;57.150;-2.134;2022-10-19T11:00:28;10.80;99.90
23629;DHT22;11991;57.150;-2.134;2022-10-19T11:03:24;10.90;99.90
23629;DHT22;11991;57.150;-2.134;2022-10-19T11:06:09;10.90;99.90
23629;DHT22;11991;57.150;-2.134;2022-10-19T11:08:50;11.00;99.90
23629;DHT22;11991;57.150;-2.134;2022-10-19T11:11:44;11.00;99.90
23629;DHT22;11991;57.150;-2.134;2022-10-19T11:14:48;11.10;99.90
23629;DHT22;11991;57.150;-2.134;2022-10-19T11:17:26;11.20;99.90
23629;DHT22;11991;57.150;-2.134;2022-10-19T11:19:54;11.10;99.90
23629;DHT22;11991;57.150;-2.134;2022-10-19T11:22:34;11.20;99.90
23629;DHT22;11991;57.150;-2.134;2022-10-19T11:31:19;11.10;99.90
23629;DHT22;11991;57.150;-2.134;2022-10-19T11:43:58;11.10;99.90
23629;DHT22;11991;57.150;-2.134;2022-10-19T11:49:36;11.10;99.90
23629;DHT22;11991;57.150;-2.134;2022-10-19T11:58:23;11.10;99.90
23629;DHT22;11991;57.150;-2.134;2022-10-19T12:12:39;11.10;99.90
23629;DHT22;11991;57.150;-2.134;2022-10-19T12:15:26;11.10;99.90
23629;DHT22;11991;57.150;-2.134;2022-10-19T12:21:01;11.10;99.90
23629;DHT22;11991;57.150;-2.134;2022-10-19T12:23:43;11.10;99.90
23629;DHT22;11991;57.150;-2.134;2022-10-19T12:26:20;11.10;99.90
23629;DHT22;11991;57.150;-2.134;2022-10-19T12:28:59;11.10;99.90
23629;DHT22;11991;57.150;-2.134;2022-10-19T12:31:28;11.10;99.90
23629;DHT22;11991;57.150;-2.134;2022-10-19T12:42:28;11.10;99.90
23629;DHT22;11991;57.150;-2.134;2022-10-19T12:47:31;11.00;99.90
23629;DHT22;11991;57.150;-2.134;2022-10-19T12:49:59;10.90;99.90
23629;DHT22;11991;57.150;-2.134;2022-10-19T12:52:47;10.90;99.90
23629;DHT22;11991;57.150;-2.134;2022-10-19T12:55:25;10.90;99.90
23629;DHT22;11991;57.150;-2.134;2022-10-19T12:58:20;10.80;99.90
23629;DHT22;11991;57.150;-2.134;2022-10-19T13:01:02;10.80;99.90
23629;DHT22;11991;57.150;-2.134;2022-10-19T13:03:33;10.90;99.90
23629;DHT22;11991;57.150;-2.134;2022-10-19T13:06:10;10.90;99.90
23629;DHT22;11991;57.150;-2.134;2022-10-19T13:08:52;10.80;99.90
23629;DHT22;11991;57.150;-2.134;2022-10-19T13:11:21;10.80;99.90
23629;DHT22;11991;57.150;-2.134;2022-10-19T13:14:01;10.80;99.90
23629;DHT22;11991;57.150;-2.134;2022-10-19T13:21:52;10.80;99.90
23629;DHT22;11991;57.150;-2.134;2022-10-19T13:27:18;10.80;99.90
23629;DHT22;11991;57.150;-2.134;2022-10-19T13:29:49;10.80;99.90
23629;DHT22;11991;57.150;-2.134;2022-10-19T13:32:43;10.80;99.90
23629;DHT22;11991;57.150;-2.134;2022-10-19T13:35:32;10.70;99.90
23629;DHT22;11991;57.150;-2.134;2022-10-19T13:38:30;10.70;99.90
23629;DHT22;11991;57.150;-2.134;2022-10-19T13:41:17;10.70;99.90
23629;DHT22;11991;57.150;-2.134;2022-10-19T13:44:03;10.70;99.90
23629;DHT22;11991;57.150;-2.134;2022-10-19T13:55:03;10.70;99.90
23629;DHT22;11991;57.150;-2.134;2022-10-19T14:03:19;10.70;99.90
23629;DHT22;11991;57.150;-2.134;2022-10-19T14:06:05;10.70;99.90
23629;DHT22;11991;57.150;-2.134;2022-10-19T14:11:38;10.70;99.90
23629;DHT22;11991;57.150;-2.134;2022-10-19T14:16:52;10.60;99.90
23629;DHT22;11991;57.150;-2.134;2022-10-19T14:19:30;10.60;99.90
23629;DHT22;11991;57.150;-2.134;2022-10-19T14:22:24;10.70;99.90
23629;DHT22;11991;57.150;-2.134;2022-10-19T14:25:22;10.70;99.90
23629;DHT22;11991;57.150;-2.134;2022-10-19T14:27:59;10.70;99.90
23629;DHT22;11991;57.150;-2.134;2022-10-19T14:30:29;10.70;99.90
23629;DHT22;11991;57.150;-2.134;2022-10-19T14:33:00;10.70;99.90
23629;DHT22;11991;57.150;-2.134;2022-10-19T14:35:32;10.70;99.90
23629;DHT22;11991;57.150;-2.134;2022-10-19T14:38:00;10.70;99.90
23629;DHT22;11991;57.150;-2.134;2022-10-19T14:40:30;10.70;99.90
23629;DHT22;11991;57.150;-2.134;2022-10-19T14:42:59;10.70;99.90
23629;DHT22;11991;57.150;-2.134;2022-10-19T14:45:29;10.60;99.90
23629;DHT22;11991;57.150;-2.134;2022-10-19T14:48:03;10.60;99.90
23629;DHT22;11991;57.150;-2.134;2022-10-19T14:55:38;10.60;99.90
23629;DHT22;11991;57.150;-2.134;2022-10-19T14:58:14;10.70;99.90
23629;DHT22;11991;57.150;-2.134;2022-10-19T15:00:44;10.70;99.90
23629;DHT22;11991;57.150;-2.134;2022-10-19T15:03:27;10.70;99.90
23629;DHT22;11991;57.150;-2.134;2022-10-19T15:06:00;10.80;99.90
23629;DHT22;11991;57.150;-2.134;2022-10-19T15:08:33;10.80;99.90
23629;DHT22;11991;57.150;-2.134;2022-10-19T15:11:05;10.80;99.90
23629;DHT22;11991;57.150;-2.134;2022-10-19T15:13:41;10.80;99.90
23629;DHT22;11991;57.150;-2.134;2022-10-19T15:16:52;10.80;99.90
23629;DHT22;11991;57.150;-2.134;2022-10-19T15:19:31;10.80;99.90
23629;DHT22;11991;57.150;-2.134;2022-10-19T15:22:22;10.70;99.90
23629;DHT22;11991;57.150;-2.134;2022-10-19T15:27:37;10.70;99.90
23629;DHT22;11991;57.150;-2.134;2022-10-19T15:35:31;10.60;99.90
23629;DHT22;11991;57.150;-2.134;2022-10-19T15:38:14;10.60;99.90
23629;DHT22;11991;57.150;-2.134;2022-10-19T15:40:44;10.60;99.90
23629;DHT22;11991;57.150;-2.134;2022-10-19T15:48:50;10.60;99.90
23629;DHT22;11991;57.150;-2.134;2022-10-19T15:53:56;10.60;99.90
23629;DHT22;11991;57.150;-2.134;2022-10-19T15:56:26;10.60;99.90
23629;DHT22;11991;57.150;-2.134;2022-10-19T15:58:56;10.50;99.90
23629;DHT22;11991;57.150;-2.134;2022-10-19T16:01:26;10.50;99.90
23629;DHT22;11991;57.150;-2.134;2022-10-19T16:03:55;10.50;99.90
23629;DHT22;11991;57.150;-2.134;2022-10-19T16:06:47;10.50;99.90
23629;DHT22;11991;57.150;-2.134;2022-10-19T16:09:18;10.50;99.90
23629;DHT22;11991;57.150;-2.134;2022-10-19T16:11:46;10.50;99.90
23629;DHT22;11991;57.150;-2.134;2022-10-19T16:14:13;10.50;99.90
23629;DHT22;11991;57.150;-2.134;2022-10-19T16:16:41;10.50;99.90
23629;DHT22;11991;57.150;-2.134;2022-10-19T16:19:09;10.50;99.90
23629;DHT22;11991;57.150;-2.134;2022-10-19T16:21:36;10.50;99.90
23629;DHT22;11991;57.150;-2.134;2022-10-19T16:24:04;10.40;99.90
23629;DHT22;11991;57.150;-2.134;2022-10-19T16:26:32;10.40;99.90
23629;DHT22;11991;57.150;-2.134;2022-10-19T16:29:00;10.40;99.90
23629;DHT22;11991;57.150;-2.134;2022-10-19T16:31:27;10.40;99.90
23629;DHT22;11991;57.150;-2.134;2022-10-19T16:33:54;10.40;99.90
23629;DHT22;11991;57.150;-2.134;2022-10-19T16:36:22;10.30;99.90
23629;DHT22;11991;57.150;-2.134;2022-10-19T16:38:49;10.30;99.90
23629;DHT22;11991;57.150;-2.134;2022-10-19T16:41:16;10.30;99.90
23629;DHT22;11991;57.150;-2.134;2022-10-19T16:43:44;10.30;99.90
23629;DHT22;11991;57.150;-2.134;2022-10-19T16:46:11;10.20;99.90
23629;DHT22;11991;57.150;-2.134;2022-10-19T16:48:38;10.20;99.90
23629;DHT22;11991;57.150;-2.134;2022-10-19T16:53:33;10.20;99.90
23629;DHT22;11991;57.150;-2.134;2022-10-19T16:56:08;10.20;99.90
23629;DHT22;11991;57.150;-2.134;2022-10-19T16:58:36;10.20;99.90
23629;DHT22;11991;57.150;-2.134;2022-10-19T17:01:08;10.20;99.90
23629;DHT22;11991;57.150;-2.134;2022-10-19T17:03:36;10.20;99.90
23629;DHT22;11991;57.150;-2.134;2022-10-19T17:06:04;10.20;99.90
23629;DHT22;11991;57.150;-2.134;2022-10-19T17:08:32;10.20;99.90
23629;DHT22;11991;57.150;-2.134;2022-10-19T17:11:28;10.20;99.90
23629;DHT22;11991;57.150;-2.134;2022-10-19T17:13:57;10.20;99.90
23629;DHT22;11991;57.150;-2.134;2022-10-19T17:16:26;10.20;99.90
23629;DHT22;11991;57.150;-2.134;2022-10-19T17:18:55;10.20;99.90
23629;DHT22;11991;57.150;-2.134;2022-10-19T17:21:26;10.30;99.90
23629;DHT22;11991;57.150;-2.134;2022-10-19T17:23:56;10.30;99.90
23629;DHT22;11991;57.150;-2.134;2022-10-19T17:26:31;10.30;99.90
23629;DHT22;11991;57.150;-2.134;2022-10-19T17:42:59;10.30;99.90
23629;DHT22;11991;57.150;-2.134;2022-10-19T17:45:26;10.20;99.90
23629;DHT22;11991;57.150;-2.134;2022-10-19T17:47:55;10.20;99.90
23629;DHT22;11991;57.150;-2.134;2022-10-19T17:50:22;10.20;99.90
23629;DHT22;11991;57.150;-2.134;2022-10-19T17:52:49;10.20;99.90
23629;DHT22;11991;57.150;-2.134;2022-10-19T17:55:16;10.20;99.90
23629;DHT22;11991;57.150;-2.134;2022-10-19T17:57:43;10.20;99.90
23629;DHT22;11991;57.150;-2.134;2022-10-19T18:00:11;10.20;99.90
23629;DHT22;11991;57.150;-2.134;2022-10-19T18:02:38;10.20;99.90
23629;DHT22;11991;57.150;-2.134;2022-10-19T18:05:06;10.20;99.90
23629;DHT22;11991;57.150;-2.134;2022-10-19T18:07:33;10.10;99.90
23629;DHT22;11991;57.150;-2.134;2022-10-19T18:10:01;10.10;99.90
23629;DHT22;11991;57.150;-2.134;2022-10-19T18:12:28;10.10;99.90
23629;DHT22;11991;57.150;-2.134;2022-10-19T18:14:56;10.10;99.90
23629;DHT22;11991;57.150;-2.134;2022-10-19T18:17:23;10.10;99.90
23629;DHT22;11991;57.150;-2.134;2022-10-19T18:19:53;10.10;99.90
23629;DHT22;11991;57.150;-2.134;2022-10-19T18:22:20;10.10;99.90
23629;DHT22;11991;57.150;-2.134;2022-10-19T18:24:48;10.10;99.90
23629;DHT22;11991;57.150;-2.134;2022-10-19T18:27:15;10.10;99.90
23629;DHT22;11991;57.150;-2.134;2022-10-19T18:29:42;10.10;99.90
23629;DHT22;11991;57.150;-2.134;2022-10-19T18:32:10;10.10;99.90
23629;DHT22;11991;57.150;-2.134;2022-10-19T18:34:38;10.10;99.90
23629;DHT22;11991;57.150;-2.134;2022-10-19T18:37:05;10.10;99.90
23629;DHT22;11991;57.150;-2.134;2022-10-19T18:39:33;10.00;99.90
23629;DHT22;11991;57.150;-2.134;2022-10-19T18:42:00;10.00;99.90
23629;DHT22;11991;57.150;-2.134;2022-10-19T18:44:27;10.00;99.90
23629;DHT22;11991;57.150;-2.134;2022-10-19T18:46:59;10.00;99.90
23629;DHT22;11991;57.150;-2.134;2022-10-19T18:49:26;9.90;99.90